Time,TemperatureF,DewpointF,PressureIn,WindDirection,WindDirectionDegrees,WindSpeedMPH,WindSpeedGustMPH,Humidity,HourlyPrecipIn,Conditions,Clouds,dailyrainin,SoftwareType,DateUTC
2013-10-21 00:00:00,64.6,48.0,28.44,East,90,3.0,13.0,55,0.00,CLR,CLR,0.00,WeatherDisplay:10.37,2013-10-20 21:00:00,
2013-10-21 00:10:00,65.1,47.6,28.43,East,90,5.0,14.0,53,0.00,CLR,CLR,0.00,WeatherDisplay:10.37,2013-10-20 21:10:00,
2013-10-21 00:20:00,65.6,46.4,28.43,East,90,5.0,18.0,50,0.00,CLR,CLR,0.00,WeatherDisplay:10.37,2013-10-20 21:20:00,
2013-10-21 00:30:00,65.5,45.8,28.44,East,90,6.0,18.0,49,0.00,CLR,CLR,0.00,WeatherDisplay:10.37,2013-10-20 21:30:00,
2013-10-21 00:40:00,65.1,46.0,28.44,East,90,3.0,13.0,50,0.00,CLR,CLR,0.00,WeatherDisplay:10.37,2013-10-20 21:40:00,
2013-10-21 00:50:00,64.8,45.7,28.44,East,90,3.0,11.0,50,0.00,CLR,CLR,0.00,WeatherDisplay:10.37,2013-10-20 21:50:00,
2013-10-21 01:00:00,64.9,45.8,28.43,East,90,3.0,10.0,50,0.00,CLR,CLR,0.00,WeatherDisplay:10.37,2013-10-20 22:00:00,
2013-10-21 01:10:00,64.7,47.2,28.43,East,90,1.0,17.0,53,0.00,CLR,CLR,0.00,WeatherDisplay:10.37,2013-10-20 22:10:00,
2013-10-21 01:20:00,64.4,45.9,28.43,East,90,3.0,13.0,51,0.00,CLR,CLR,0.00,WeatherDisplay:10.37,2013-10-20 22:20:00,
2013-10-21 01:30:00,64.4,45.3,28.43,East,90,2.0,13.0,50,0.00,CLR,CLR,0.00,WeatherDisplay:10.37,2013-10-20 22:30:00,
2013-10-21 01:40:00,64.4,45.3,28.43,East,90,2.0,8.0,50,0.00,CLR,CLR,0.00,WeatherDisplay:10.37,2013-10-20 22:40:00,
2013-10-21 01:50:00,64.6,43.9,28.42,East,90,5.0,13.0,47,0.00,CLR,CLR,0.00,WeatherDisplay:10.37,2013-10-20 22:50:00,
2013-10-21 02:00:00,64.9,44.2,28.42,East,90,3.0,15.0,47,0.00,CLR,CLR,0.00,WeatherDisplay:10.37,2013-10-20 23:00:00,
2013-10-21 02:10:00,64.9,43.7,28.42,East,90,2.0,10.0,46,0.00,CLR,CLR,0.00,WeatherDisplay:10.37,2013-10-20 23:10:00,
2013-10-21 02:20:00,65.1,42.0,28.42,East,90,5.0,13.0,43,0.00,CLR,CLR,0.00,WeatherDisplay:10.37,2013-10-20 23:20:00,
2013-10-21 02:30:00,65.5,44.1,28.42,East,90,0.0,12.0,46,0.00,CLR,CLR,0.00,WeatherDisplay:10.37,2013-10-20 23:30:00,
2013-10-21 02:40:00,65.5,44.1,28.41,East,90,0.0,6.0,46,0.00,CLR,CLR,0.00,WeatherDisplay:10.37,2013-10-20 23:40:00,
2013-10-21 02:50:00,64.6,43.3,28.41,East,90,2.0,7.0,46,0.00,CLR,CLR,0.00,WeatherDisplay:10.37,2013-10-20 23:50:00,
2013-10-21 03:00:00,63.9,44.9,28.41,East,90,1.0,6.0,50,0.00,CLR,CLR,0.00,WeatherDisplay:10.37,2013-10-21 00:00:00,
2013-10-21 03:10:00,63.0,45.6,28.41,East,90,0.0,3.0,53,0.00,CLR,CLR,0.00,WeatherDisplay:10.37,2013-10-21 00:10:00,
2013-10-21 03:20:00,63.1,46.7,28.41,East,90,0.0,2.0,55,0.00,CLR,CLR,0.00,WeatherDisplay:10.37,2013-10-21 00:20:00,
2013-10-21 03:30:00,62.1,45.7,28.40,East,90,0.0,3.0,55,0.00,CLR,CLR,0.00,WeatherDisplay:10.37,2013-10-21 00:30:00,
2013-10-21 03:40:00,62.0,46.6,28.40,East,90,0.0,3.0,57,0.00,CLR,CLR,0.00,WeatherDisplay:10.37,2013-10-21 00:40:00,
2013-10-21 03:50:00,62.7,44.8,28.40,East,90,1.0,8.0,52,0.00,CLR,CLR,0.00,WeatherDisplay:10.37,2013-10-21 00:50:00,
2013-10-21 04:10:00,61.7,46.3,28.39,East,90,1.0,8.0,57,0.00,CLR,CLR,0.00,WeatherDisplay:10.37,2013-10-21 01:10:00,
2013-10-21 04:20:00,62.2,44.9,28.40,East,90,2.0,13.0,53,0.00,CLR,CLR,0.00,WeatherDisplay:10.37,2013-10-21 01:20:00,
2013-10-21 04:30:00,62.6,43.7,28.39,East,90,2.0,6.0,50,0.00,CLR,CLR,0.00,WeatherDisplay:10.37,2013-10-21 01:30:00,
2013-10-21 04:40:00,63.5,42.9,28.39,East,90,2.0,6.0,47,0.00,CLR,CLR,0.00,WeatherDisplay:10.37,2013-10-21 01:40:00,
2013-10-21 04:50:00,63.5,42.9,28.39,East,90,3.0,8.0,47,0.00,CLR,CLR,0.00,WeatherDisplay:10.37,2013-10-21 01:50:00,
2013-10-21 05:10:00,63.7,43.1,28.39,East,90,1.0,6.0,47,0.00,CLR,CLR,0.00,WeatherDisplay:10.37,2013-10-21 02:10:00,
2013-10-21 05:20:00,63.0,43.5,28.39,East,90,3.0,6.0,49,0.00,CLR,CLR,0.00,WeatherDisplay:10.37,2013-10-21 02:20:00,
2013-10-21 05:30:00,63.1,43.7,28.38,East,90,2.0,7.0,49,0.00,CLR,CLR,0.00,WeatherDisplay:10.37,2013-10-21 02:30:00,
2013-10-21 05:40:00,62.7,43.8,28.38,East,90,2.0,6.0,50,0.00,CLR,CLR,0.00,WeatherDisplay:10.37,2013-10-21 02:40:00,
2013-10-21 05:50:00,63.3,43.8,28.38,East,90,0.0,8.0,49,0.00,CLR,CLR,0.00,WeatherDisplay:10.37,2013-10-21 02:50:00,
2013-10-21 06:00:00,63.0,43.5,28.38,East,90,1.0,6.0,49,0.00,CLR,CLR,0.00,WeatherDisplay:10.37,2013-10-21 03:00:00,
2013-10-21 06:10:00,62.3,44.4,28.38,East,90,1.0,3.0,52,0.00,CLR,CLR,0.00,WeatherDisplay:10.37,2013-10-21 03:10:00,
2013-10-21 06:20:00,62.1,44.7,28.39,East,90,0.0,2.0,53,0.00,CLR,CLR,0.00,WeatherDisplay:10.37,2013-10-21 03:20:00,
2013-10-21 06:30:00,62.2,45.4,28.38,East,90,0.0,5.0,54,0.00,CLR,CLR,0.00,WeatherDisplay:10.37,2013-10-21 03:30:00,
2013-10-21 06:40:00,63.0,46.0,28.38,East,90,0.0,4.0,54,0.00,CLR,CLR,0.00,WeatherDisplay:10.37,2013-10-21 03:40:00,
2013-10-21 06:50:00,62.4,45.1,28.38,East,90,1.0,7.0,53,0.00,CLR,CLR,0.00,WeatherDisplay:10.37,2013-10-21 03:50:00,
2013-10-21 07:00:00,61.2,44.9,28.38,East,90,1.0,4.0,55,0.00,CLR,CLR,0.00,WeatherDisplay:10.37,2013-10-21 04:00:00,
2013-10-21 07:10:00,60.1,44.8,28.38,East,90,0.0,4.0,57,0.00,CLR,CLR,0.00,WeatherDisplay:10.37,2013-10-21 04:10:00,
2013-10-21 07:20:00,60.2,45.8,28.38,East,90,0.0,4.0,59,0.00,CLR,CLR,0.00,WeatherDisplay:10.37,2013-10-21 04:20:00,
2013-10-21 07:30:00,61.9,46.9,28.38,East,90,1.0,5.0,58,0.00,CLR,CLR,0.00,WeatherDisplay:10.37,2013-10-21 04:30:00,
2013-10-21 07:40:00,62.2,46.8,28.38,East,90,1.0,3.0,57,0.00,CLR,CLR,0.00,WeatherDisplay:10.37,2013-10-21 04:40:00,
2013-10-21 07:50:00,61.8,46.9,28.38,East,90,1.0,3.0,58,0.00,CLR,CLR,0.00,WeatherDisplay:10.37,2013-10-21 04:50:00,
2013-10-21 08:00:00,61.1,46.7,28.39,East,90,1.0,4.0,59,0.00,CLR,CLR,0.00,WeatherDisplay:10.37,2013-10-21 05:00:00,
2013-10-21 08:10:00,60.7,47.1,28.39,East,90,0.0,4.0,61,0.00,CLR,CLR,0.00,WeatherDisplay:10.37,2013-10-21 05:10:00,
2013-10-21 08:20:00,61.7,48.1,28.40,East,90,1.0,4.0,61,0.00,CLR,CLR,0.00,WeatherDisplay:10.37,2013-10-21 05:20:00,
2013-10-21 08:30:00,64.9,50.2,28.40,East,90,0.0,2.0,59,0.00,CLR,CLR,0.00,WeatherDisplay:10.37,2013-10-21 05:30:00,
2013-10-21 08:40:00,67.1,50.4,28.40,East,90,0.0,3.0,55,0.00,CLR,CLR,0.00,WeatherDisplay:10.37,2013-10-21 05:40:00,
2013-10-21 08:50:00,69.8,51.9,28.40,East,90,0.0,2.0,53,0.00,CLR,CLR,0.00,WeatherDisplay:10.37,2013-10-21 05:50:00,
2013-10-21 09:01:00,71.9,52.8,28.40,East,90,0.0,2.0,51,0.00,CLR,CLR,0.00,WeatherDisplay:10.37,2013-10-21 06:01:00,
2013-10-21 09:10:00,72.9,54.3,28.40,East,90,0.0,2.0,52,0.00,CLR,CLR,0.00,WeatherDisplay:10.37,2013-10-21 06:10:00,
2013-10-21 09:20:00,76.7,55.5,28.40,East,90,0.0,2.0,48,0.00,CLR,CLR,0.00,WeatherDisplay:10.37,2013-10-21 06:20:00,
2013-10-21 09:30:00,75.6,55.1,28.40,East,90,0.0,3.0,49,0.00,CLR,CLR,0.00,WeatherDisplay:10.37,2013-10-21 06:30:00,
2013-10-21 09:40:00,77.0,54.0,28.40,East,90,0.0,6.0,45,0.00,CLR,CLR,0.00,WeatherDisplay:10.37,2013-10-21 06:40:00,
2013-10-21 09:50:00,75.3,53.1,28.41,East,90,5.0,9.0,46,0.00,CLR,CLR,0.00,WeatherDisplay:10.37,2013-10-21 06:50:00,
2013-10-21 10:00:00,74.4,54.0,28.41,East,90,1.0,9.0,49,0.00,CLR,CLR,0.00,WeatherDisplay:10.37,2013-10-21 07:00:00,
2013-10-21 10:10:00,77.5,55.0,28.41,East,90,1.0,5.0,46,0.00,CLR,CLR,0.00,WeatherDisplay:10.37,2013-10-21 07:10:00,
2013-10-21 10:20:00,77.2,54.9,28.41,East,90,0.0,7.0,46,0.00,CLR,CLR,0.00,WeatherDisplay:10.37,2013-10-21 07:20:00,
2013-10-21 10:30:00,76.6,54.9,28.41,East,90,1.0,6.0,47,0.00,CLR,CLR,0.00,WeatherDisplay:10.37,2013-10-21 07:30:00,
2013-10-21 10:40:00,76.4,55.3,28.41,East,90,1.0,6.0,48,0.00,CLR,CLR,0.00,WeatherDisplay:10.37,2013-10-21 07:40:00,
2013-10-21 10:50:00,77.5,55.7,28.40,East,90,2.0,6.0,47,0.00,CLR,CLR,0.00,WeatherDisplay:10.37,2013-10-21 07:50:00,
2013-10-21 11:00:00,76.5,55.3,28.40,East,90,2.0,6.0,48,0.00,CLR,CLR,0.00,WeatherDisplay:10.37,2013-10-21 08:00:00,
2013-10-21 11:10:00,76.9,55.1,28.40,East,90,3.0,6.0,47,0.00,CLR,CLR,0.00,WeatherDisplay:10.37,2013-10-21 08:10:00,
2013-10-21 11:20:00,77.1,55.9,28.40,East,90,1.0,6.0,48,0.00,CLR,CLR,0.00,WeatherDisplay:10.37,2013-10-21 08:20:00,
2013-10-21 11:30:00,77.0,52.8,28.40,East,90,2.0,6.0,43,0.00,CLR,CLR,0.00,WeatherDisplay:10.37,2013-10-21 08:30:00,
2013-10-21 11:40:00,77.8,54.8,28.40,East,90,0.0,6.0,45,0.00,CLR,CLR,0.00,WeatherDisplay:10.37,2013-10-21 08:40:00,
2013-10-21 11:50:00,77.6,53.3,28.39,East,90,3.0,11.0,43,0.00,CLR,CLR,0.00,WeatherDisplay:10.37,2013-10-21 08:50:00,
2013-10-21 12:00:00,77.0,50.8,28.39,ESE,104,5.0,10.0,40,0.00,CLR,CLR,0.00,WeatherDisplay:10.37,2013-10-21 09:00:00,
2013-10-21 12:10:00,76.4,51.6,28.40,ESE,112,5.0,11.0,42,0.00,CLR,CLR,0.00,WeatherDisplay:10.37,2013-10-21 09:10:00,
2013-10-21 12:20:00,75.9,51.8,28.39,ESE,119,6.0,11.0,43,0.00,CLR,CLR,0.00,WeatherDisplay:10.37,2013-10-21 09:20:00,
2013-10-21 12:30:00,76.4,52.8,28.39,SE,135,2.0,12.0,44,0.00,CLR,CLR,0.00,WeatherDisplay:10.37,2013-10-21 09:30:00,
2013-10-21 12:40:00,77.1,52.3,28.38,SE,135,2.0,12.0,42,0.00,CLR,CLR,0.00,WeatherDisplay:10.37,2013-10-21 09:40:00,
2013-10-21 12:50:00,77.1,52.2,28.38,SE,135,5.0,12.0,42,0.00,CLR,CLR,0.00,WeatherDisplay:10.37,2013-10-21 09:50:00,
2013-10-21 13:00:00,76.0,55.4,28.38,SE,135,5.0,15.0,49,0.00,CLR,CLR,0.00,WeatherDisplay:10.37,2013-10-21 10:00:00,
2013-10-21 13:10:00,77.0,55.2,28.38,SE,135,2.0,12.0,47,0.00,CLR,CLR,0.00,WeatherDisplay:10.37,2013-10-21 10:10:00,
2013-10-21 13:20:00,77.6,54.0,28.38,SE,135,5.0,12.0,44,0.00,CLR,CLR,0.00,WeatherDisplay:10.37,2013-10-21 10:20:00,
2013-10-21 13:30:00,78.2,54.5,28.37,SE,135,2.0,9.0,44,0.00,CLR,CLR,0.00,WeatherDisplay:10.37,2013-10-21 10:30:00,
2013-10-21 13:40:00,78.6,53.6,28.37,SE,135,3.0,8.0,42,0.00,CLR,CLR,0.00,WeatherDisplay:10.37,2013-10-21 10:40:00,
2013-10-21 13:50:00,78.8,53.8,28.37,SE,135,2.0,7.0,42,0.00,CLR,CLR,0.00,WeatherDisplay:10.37,2013-10-21 10:50:00,
2013-10-21 14:00:00,78.6,53.6,28.36,SE,135,3.0,8.0,42,0.00,CLR,CLR,0.00,WeatherDisplay:10.37,2013-10-21 11:00:00,
2013-10-21 14:10:00,78.2,53.9,28.36,SE,135,3.0,7.0,43,0.00,CLR,CLR,0.00,WeatherDisplay:10.37,2013-10-21 11:10:00,
2013-10-21 14:20:00,78.6,52.9,28.36,SE,135,2.0,7.0,41,0.00,CLR,CLR,0.00,WeatherDisplay:10.37,2013-10-21 11:20:00,
2013-10-21 14:30:00,78.2,53.2,28.36,SE,135,2.0,6.0,42,0.00,CLR,CLR,0.00,WeatherDisplay:10.37,2013-10-21 11:30:00,
2013-10-21 14:40:00,78.6,52.9,28.35,SE,135,2.0,7.0,41,0.00,CLR,CLR,0.00,WeatherDisplay:10.37,2013-10-21 11:40:00,
2013-10-21 14:50:00,78.3,52.6,28.35,SE,135,1.0,7.0,41,0.00,CLR,CLR,0.00,WeatherDisplay:10.37,2013-10-21 11:50:00,
2013-10-21 15:00:00,78.4,53.4,28.34,SE,135,1.0,7.0,42,0.00,CLR,CLR,0.00,WeatherDisplay:10.37,2013-10-21 12:00:00,
2013-10-21 15:10:00,77.0,52.8,28.34,SE,135,3.0,7.0,43,0.00,CLR,CLR,0.00,WeatherDisplay:10.37,2013-10-21 12:10:00,
2013-10-21 15:20:00,77.0,52.8,28.33,SE,135,3.0,8.0,43,0.00,CLR,CLR,0.00,WeatherDisplay:10.37,2013-10-21 12:20:00,
2013-10-21 15:30:00,77.5,53.9,28.34,SE,141,3.0,8.0,44,0.00,CLR,CLR,0.00,WeatherDisplay:10.37,2013-10-21 12:30:00,
2013-10-21 15:40:00,76.9,55.2,28.33,SSE,151,2.0,10.0,47,0.00,CLR,CLR,0.00,WeatherDisplay:10.37,2013-10-21 12:40:00,
2013-10-21 15:50:00,75.8,54.2,28.33,SE,135,5.0,9.0,47,0.00,CLR,CLR,0.00,WeatherDisplay:10.37,2013-10-21 12:50:00,
2013-10-21 16:00:00,76.5,54.7,28.33,SE,145,3.0,8.0,47,0.00,CLR,CLR,0.00,WeatherDisplay:10.37,2013-10-21 13:00:00,
2013-10-21 16:10:00,76.6,55.4,28.32,SSE,158,3.0,8.0,48,0.00,CLR,CLR,0.00,WeatherDisplay:10.37,2013-10-21 13:10:00,
2013-10-21 16:20:00,76.2,56.2,28.32,SSE,158,3.0,9.0,50,0.00,CLR,CLR,0.00,WeatherDisplay:10.37,2013-10-21 13:20:00,
2013-10-21 16:30:00,76.9,57.9,28.32,South,175,3.0,8.0,52,0.00,CLR,CLR,0.00,WeatherDisplay:10.37,2013-10-21 13:30:00,
2013-10-21 16:40:00,76.4,58.5,28.31,South,180,2.0,8.0,54,0.00,CLR,CLR,0.00,WeatherDisplay:10.37,2013-10-21 13:40:00,
2013-10-21 16:50:00,75.4,58.6,28.32,South,180,5.0,8.0,56,0.00,CLR,CLR,0.00,WeatherDisplay:10.37,2013-10-21 13:50:00,
2013-10-21 17:00:00,76.2,59.3,28.31,South,180,5.0,7.0,56,0.00,CLR,CLR,0.00,WeatherDisplay:10.37,2013-10-21 14:00:00,
2013-10-21 17:10:00,75.0,58.2,28.32,South,180,7.0,11.0,56,0.00,CLR,CLR,0.00,WeatherDisplay:10.37,2013-10-21 14:10:00,
2013-10-21 17:20:00,74.0,58.3,28.31,South,180,5.0,10.0,58,0.00,CLR,CLR,0.00,WeatherDisplay:10.37,2013-10-21 14:20:00,
2013-10-21 17:30:00,73.4,58.7,28.32,South,180,3.0,9.0,60,0.00,CLR,CLR,0.00,WeatherDisplay:10.37,2013-10-21 14:30:00,
2013-10-21 17:40:00,73.2,58.9,28.32,South,180,5.0,8.0,61,0.00,CLR,CLR,0.00,WeatherDisplay:10.37,2013-10-21 14:40:00,
2013-10-21 17:50:00,72.0,58.7,28.31,South,180,3.0,9.0,63,0.00,CLR,CLR,0.00,WeatherDisplay:10.37,2013-10-21 14:50:00,
2013-10-21 18:00:00,70.7,58.4,28.31,South,180,5.0,8.0,65,0.00,CLR,CLR,0.00,WeatherDisplay:10.37,2013-10-21 15:00:00,
2013-10-21 18:10:00,70.9,58.5,28.32,South,180,2.0,8.0,65,0.00,CLR,CLR,0.00,WeatherDisplay:10.37,2013-10-21 15:10:00,
2013-10-21 18:20:00,70.8,58.5,28.31,South,180,1.0,5.0,65,0.00,CLR,CLR,0.00,WeatherDisplay:10.37,2013-10-21 15:20:00,
2013-10-21 18:30:00,69.6,58.6,28.32,South,180,1.0,5.0,68,0.00,CLR,CLR,0.00,WeatherDisplay:10.37,2013-10-21 15:30:00,
2013-10-21 18:40:00,68.6,58.4,28.32,South,180,2.0,5.0,70,0.00,CLR,CLR,0.00,WeatherDisplay:10.37,2013-10-21 15:40:00,
2013-10-21 18:50:00,67.6,58.3,28.31,South,180,0.0,3.0,72,0.00,CLR,CLR,0.00,WeatherDisplay:10.37,2013-10-21 15:50:00,
2013-10-21 19:00:00,66.9,58.4,28.32,South,180,1.0,3.0,74,0.00,CLR,CLR,0.00,WeatherDisplay:10.37,2013-10-21 16:00:00,
2013-10-21 19:10:00,66.4,57.8,28.32,South,180,0.0,3.0,74,0.00,CLR,CLR,0.00,WeatherDisplay:10.37,2013-10-21 16:10:00,
2013-10-21 19:20:00,66.0,58.2,28.32,South,180,1.0,3.0,76,0.00,CLR,CLR,0.00,WeatherDisplay:10.37,2013-10-21 16:20:00,
2013-10-21 19:30:00,65.6,58.2,28.32,South,180,0.0,2.0,77,0.00,CLR,CLR,0.00,WeatherDisplay:10.37,2013-10-21 16:30:00,
2013-10-21 19:40:00,65.1,57.7,28.32,South,180,0.0,2.0,77,0.00,CLR,CLR,0.00,WeatherDisplay:10.37,2013-10-21 16:40:00,
2013-10-21 19:50:00,64.9,57.9,28.32,South,180,0.0,2.0,78,0.00,CLR,CLR,0.00,WeatherDisplay:10.37,2013-10-21 16:50:00,
2013-10-21 20:00:00,64.8,58.1,28.33,South,180,1.0,2.0,79,0.00,CLR,CLR,0.00,WeatherDisplay:10.37,2013-10-21 17:00:00,
2013-10-21 20:10:00,64.8,58.4,28.32,South,180,1.0,2.0,80,0.00,CLR,CLR,0.00,WeatherDisplay:10.37,2013-10-21 17:10:00,
2013-10-21 20:20:00,64.6,58.3,28.32,South,180,1.0,3.0,80,0.00,CLR,CLR,0.00,WeatherDisplay:10.37,2013-10-21 17:20:00,
2013-10-21 20:30:00,64.4,58.1,28.32,South,180,1.0,3.0,80,0.00,CLR,CLR,0.00,WeatherDisplay:10.37,2013-10-21 17:30:00,
2013-10-21 20:40:00,64.3,58.0,28.33,South,180,2.0,4.0,80,0.00,CLR,CLR,0.00,WeatherDisplay:10.37,2013-10-21 17:40:00,
2013-10-21 20:50:00,64.4,58.1,28.33,South,180,1.0,4.0,80,0.00,CLR,CLR,0.00,WeatherDisplay:10.37,2013-10-21 17:50:00,
2013-10-21 21:00:00,64.4,58.1,28.32,South,180,1.0,4.0,80,0.00,CLR,CLR,0.00,WeatherDisplay:10.37,2013-10-21 18:00:00,
2013-10-21 21:10:00,64.2,57.9,28.32,South,180,1.0,4.0,80,0.00,CLR,CLR,0.00,WeatherDisplay:10.37,2013-10-21 18:10:00,
2013-10-21 21:20:00,64.0,57.7,28.33,South,180,1.0,5.0,80,0.00,CLR,CLR,0.00,WeatherDisplay:10.37,2013-10-21 18:20:00,
2013-10-21 21:30:00,63.9,57.9,28.32,South,180,1.0,4.0,81,0.00,CLR,CLR,0.00,WeatherDisplay:10.37,2013-10-21 18:30:00,
2013-10-21 21:40:00,63.7,57.7,28.33,South,180,1.0,4.0,81,0.00,CLR,CLR,0.00,WeatherDisplay:10.37,2013-10-21 18:40:00,
2013-10-21 21:50:00,63.5,57.6,28.32,South,180,1.0,4.0,81,0.00,CLR,CLR,0.00,WeatherDisplay:10.37,2013-10-21 18:50:00,
2013-10-21 22:00:00,63.3,57.4,28.33,South,180,1.0,4.0,81,0.00,CLR,CLR,0.00,WeatherDisplay:10.37,2013-10-21 19:00:00,
2013-10-21 22:10:00,63.1,57.2,28.33,South,180,1.0,4.0,81,0.00,CLR,CLR,0.00,WeatherDisplay:10.37,2013-10-21 19:10:00,
2013-10-21 22:20:00,63.0,57.4,28.33,South,180,1.0,3.0,82,0.00,CLR,CLR,0.00,WeatherDisplay:10.37,2013-10-21 19:20:00,
2013-10-21 22:30:00,62.8,57.5,28.33,South,180,1.0,3.0,83,0.00,CLR,CLR,0.00,WeatherDisplay:10.37,2013-10-21 19:30:00,
2013-10-21 22:40:00,63.0,58.0,28.33,South,180,1.0,4.0,84,0.00,CLR,CLR,0.00,WeatherDisplay:10.37,2013-10-21 19:40:00,
2013-10-21 22:50:00,63.0,57.7,28.33,South,180,1.0,6.0,83,0.00,CLR,CLR,0.00,WeatherDisplay:10.37,2013-10-21 19:50:00,
2013-10-21 23:00:00,62.6,57.3,28.33,South,180,1.0,3.0,83,0.00,CLR,CLR,0.00,WeatherDisplay:10.37,2013-10-21 20:00:00,
2013-10-21 23:10:00,62.2,57.7,28.33,South,180,1.0,3.0,85,0.00,CLR,CLR,0.00,WeatherDisplay:10.37,2013-10-21 20:10:00,
2013-10-21 23:20:00,62.2,57.7,28.32,South,180,1.0,3.0,85,0.00,CLR,CLR,0.00,WeatherDisplay:10.37,2013-10-21 20:20:00,
2013-10-21 23:30:00,62.2,58.0,28.33,South,180,1.0,4.0,86,0.00,CLR,CLR,0.00,WeatherDisplay:10.37,2013-10-21 20:30:00,
2013-10-21 23:40:00,62.2,58.0,28.32,South,180,1.0,3.0,86,0.00,CLR,CLR,0.00,WeatherDisplay:10.37,2013-10-21 20:40:00,
2013-10-21 23:50:00,62.2,58.3,28.32,South,180,1.0,3.0,87,0.00,CLR,CLR,0.00,WeatherDisplay:10.37,2013-10-21 20:50:00,